Capitol Logistics 1872

Operating for CJT



CYEG
Edmonton International Airport
Edmonton, CA
CYVR
Vancouver International Airport
Vancouver, CA

Activity Log

Date Flight Route Aircraft Duration
11/23/2021 CPX1872 VIDRI Q949 ESKIE ESKIE2 B763 1h 29m

Route Details

Aircraft Information
Group: North America Fleet
Types: B738,B752,B762,B763
Route Data
Demand: V
Distance: 437nm
Duration: 1h 00m
Recm'd Route: VIDRI Q949 ESKIE ESKIE2
Origin Wx: CYEG 242211Z 24022G28KT 20SM TSRA BKN061CB BKN260 10/07 A2991 RMK CB7CI1 CI TR CB OHD ALQDS MOV NE VIS SW QUAD 5 OCNL LTGIC OHD W SLP146 DENSITY ALT 2400FT
Dest. Wx: CYVR 242200Z 15005KT 110V170 20SM FEW032 SCT049 BKN056 BKN110 OVC250 15/11 A3004 RMK CU1SC3SC1AC2CS1 SLP175
Notes:

Financial History
Total Freight: 74,832lbs
Average Load: 74,832lbs/flt
Fuel Used: 13,577lbs
Avg. Fuel Used: 13,577lbs/flt
Fuel Expense: $2,851
Avg. Fuel Expense: $2,851
Avg. Fuel Cost: $0.21/lbs
Total Gross Income: $185,583
Pilot Pay: $259
Total Expenses: $26,174
Total Revenue: $156,224
Average Revenue: $185,583.36